Time;durP1;ratioP1;P1;durP2;ratioP2;P2;SDS_P1;SDS_P2;PMS_P1;PMS_P2;Temp;Humidity;BMP_temperature;BMP_pressure;BME280_temperature;BME280_humidity;BME280_pressure;Samples;Min_cycle;Max_cycle;Signal;HPM_P1;HPM_P2
2022/08/24 00:02:19;;;;;;;0.00;0.00;;;;;;;17.82;95.12;101638.25;5022155;28;20424;-74
2022/08/24 00:04:47;;;;;;;0.00;0.00;;;;;;;17.78;94.43;101636.84;5023016;28;20033;-74
2022/08/24 00:07:12;;;;;;;0.00;0.00;;;;;;;17.79;95.65;101643.13;5024052;28;20652;-74
2022/08/24 00:09:37;;;;;;;0.00;0.00;;;;;;;17.67;93.65;101643.31;5022084;28;20518;-73
2022/08/24 00:12:04;;;;;;;0.00;0.00;;;;;;;17.57;94.59;101641.63;5022121;28;20053;-74
2022/08/24 00:14:29;;;;;;;0.00;0.00;;;;;;;17.39;95.04;101618.78;5023232;28;20013;-73
2022/08/24 00:16:56;;;;;;;0.00;0.00;;;;;;;17.52;95.14;101648.34;5023719;28;20349;-74
2022/08/24 00:19:21;;;;;;;0.00;0.00;;;;;;;17.50;94.64;101644.06;5024720;28;20025;-74
2022/08/24 00:21:46;;;;;;;0.05;0.05;;;;;;;17.24;96.04;101636.53;5022768;28;20054;-74
2022/08/24 00:24:13;;;;;;;0.00;0.00;;;;;;;17.15;96.38;101649.09;5024229;28;20037;-74
2022/08/24 00:26:38;;;;;;;0.00;0.00;;;;;;;17.16;97.17;101639.09;5022019;28;20105;-72
2022/08/24 00:29:04;;;;;;;0.00;0.00;;;;;;;17.17;97.18;101641.69;5016789;28;20112;-72
2022/08/24 00:31:29;;;;;;;0.00;0.00;;;;;;;17.18;96.34;101647.94;5016888;28;20092;-72
2022/08/24 00:33:55;;;;;;;0.00;0.00;;;;;;;16.99;95.43;101632.53;5020130;28;20029;-72
2022/08/24 00:36:20;;;;;;;0.00;0.00;;;;;;;17.00;95.43;101647.78;5019905;28;20057;-72
2022/08/24 00:38:46;;;;;;;0.00;0.00;;;;;;;17.05;96.95;101649.09;5024174;28;20462;-72
2022/08/24 00:41:14;;;;;;;0.00;0.00;;;;;;;17.10;95.41;101654.09;5025193;28;20120;-72
2022/08/24 00:43:39;;;;;;;0.00;0.00;;;;;;;17.21;95.95;101659.38;5023842;22;20046;-72
2022/08/24 00:46:29;;;;;;;0.00;0.00;;;;;;;17.31;97.56;101655.78;4998649;28;20566;-72
2022/08/24 00:49:08;;;;;;;0.00;0.00;;;;;;;17.22;94.60;101657.53;5010414;28;20034;-72
2022/08/24 00:52:12;;;;;;;0.00;0.00;;;;;;;17.06;93.97;101630.97;5001386;28;20022;-72
2022/08/24 00:54:41;;;;;;;0.00;0.00;;;;;;;17.16;93.35;101653.53;5002502;28;20080;-72
2022/08/24 00:57:09;;;;;;;0.00;0.00;;;;;;;17.07;93.83;101657.09;5002551;28;20105;-72
2022/08/24 00:59:56;;;;;;;0.00;0.00;;;;;;;16.95;93.69;101661.75;4992878;28;20026;-72
2022/08/24 01:02:26;;;;;;;0.10;0.10;;;;;;;16.91;94.49;101672.06;5003194;28;20463;-72
2022/08/24 01:04:55;;;;;;;0.00;0.00;;;;;;;16.76;95.55;101649.91;4985846;28;20022;-72
2022/08/24 01:07:23;;;;;;;0.00;0.00;;;;;;;16.81;95.54;101668.44;4996367;28;20032;-72
2022/08/24 01:09:53;;;;;;;0.00;0.00;;;;;;;16.60;95.34;101639.59;5000465;28;20029;-72
2022/08/24 01:12:19;;;;;;;0.00;0.00;;;;;;;16.74;95.13;101661.88;5000025;28;20034;-72
2022/08/24 01:14:44;;;;;;;0.00;0.00;;;;;;;16.65;95.19;101641.88;5002035;28;20063;-72
2022/08/24 01:19:54;;;;;;;;;;;;;;;16.71;95.15;101654.88;5002332;28;20095;-72
2022/08/24 01:22:25;;;;;;;0.00;0.00;;;;;;;16.64;95.26;101656.44;4999947;28;19917;-72
2022/08/24 01:24:51;;;;;;;0.00;0.00;;;;;;;16.58;95.68;101659.69;5002387;28;20030;-72
2022/08/24 01:27:17;;;;;;;0.00;0.00;;;;;;;16.42;95.85;101639.41;5002054;28;20103;-72
2022/08/24 01:29:44;;;;;;;0.00;0.00;;;;;;;16.66;96.28;101664.44;5001984;28;20033;-72
2022/08/24 01:32:10;;;;;;;0.00;0.00;;;;;;;16.66;95.71;101668.00;4999063;28;20065;-72
2022/08/24 01:34:35;;;;;;;0.00;0.00;;;;;;;16.67;95.09;101668.88;4998818;28;20046;-72
2022/08/24 01:37:01;;;;;;;0.00;0.00;;;;;;;16.68;95.08;101667.88;5001024;28;20485;-72
2022/08/24 01:39:33;;;;;;;0.00;0.00;;;;;;;16.59;93.87;101658.69;5004776;28;20503;-72
2022/08/24 01:41:59;;;;;;;0.00;0.00;;;;;;;16.54;94.17;101659.13;5002591;28;20057;-72
2022/08/24 01:44:27;;;;;;;0.00;0.00;;;;;;;16.45;94.50;101662.66;5004460;28;20484;-72
2022/08/24 01:46:53;;;;;;;0.00;0.00;;;;;;;16.38;95.24;101664.22;5000854;28;20024;-72
2022/08/24 01:49:21;;;;;;;0.00;0.00;;;;;;;16.32;95.87;101660.19;5004896;28;20132;-72
2022/08/24 01:51:46;;;;;;;0.05;0.05;;;;;;;16.28;96.79;101654.19;5002558;28;20460;-72
2022/08/24 01:54:13;;;;;;;0.00;0.00;;;;;;;16.18;96.84;101654.16;5006734;28;20030;-72
2022/08/24 01:56:39;;;;;;;0.00;0.00;;;;;;;16.14;98.16;101654.59;5001047;28;20388;-72
2022/08/24 01:59:05;;;;;;;0.00;0.00;;;;;;;16.17;98.42;101657.00;5004905;28;20021;-72
2022/08/24 02:01:33;;;;;;;0.00;0.00;;;;;;;16.20;99.04;101654.03;5003430;28;20527;-72
2022/08/24 02:04:01;;;;;;;0.00;0.00;;;;;;;16.21;98.93;101657.59;5007157;28;20046;-72
2022/08/24 02:06:26;;;;;;;0.00;0.00;;;;;;;16.26;100.00;101658.06;5021229;28;20033;-71
2022/08/24 02:08:51;;;;;;;0.00;0.00;;;;;;;16.31;100.00;101653.94;5023681;28;20376;-72
2022/08/24 02:11:17;;;;;;;0.00;0.00;;;;;;;16.28;99.28;101651.50;5022338;28;20120;-72
2022/08/24 02:13:42;;;;;;;0.10;0.10;;;;;;;16.17;99.09;101659.72;5025713;28;20021;-72
2022/08/24 02:16:08;;;;;;;0.00;0.00;;;;;;;16.09;100.00;101651.44;5024879;28;20032;-72
2022/08/24 02:18:35;;;;;;;0.03;0.03;;;;;;;16.11;100.00;101655.69;5019371;28;20320;-72
2022/08/24 02:21:01;;;;;;;0.00;0.00;;;;;;;16.15;100.00;101654.44;5026958;28;20120;-71
2022/08/24 02:23:27;;;;;;;0.03;0.03;;;;;;;16.20;100.00;101662.16;5022633;28;20433;-71
2022/08/24 02:25:53;;;;;;;0.00;0.00;;;;;;;16.19;100.00;101664.00;5019644;28;20547;-71
2022/08/24 02:28:19;;;;;;;0.00;0.00;;;;;;;16.15;99.46;101654.44;5022768;28;20072;-71
2022/08/24 02:30:44;;;;;;;0.00;0.00;;;;;;;16.28;99.91;101654.19;5024578;28;20105;-71
2022/08/24 02:33:09;;;;;;;0.10;0.10;;;;;;;16.38;99.37;101659.66;5027177;28;20029;-71
2022/08/24 02:35:35;;;;;;;0.00;0.00;;;;;;;16.12;97.64;101640.31;5024827;28;20116;-72
2022/08/24 02:38:01;;;;;;;0.00;0.00;;;;;;;16.11;97.15;101652.16;5026419;28;20430;-72
2022/08/24 02:40:26;;;;;;;0.00;0.00;;;;;;;16.19;97.05;101673.97;5026289;28;20468;-72
2022/08/24 02:42:52;;;;;;;0.00;0.00;;;;;;;16.12;98.08;101653.88;5019119;28;20033;-71
2022/08/24 02:45:18;;;;;;;0.00;0.00;;;;;;;16.28;98.72;101684.00;5026112;28;20025;-72
2022/08/24 02:47:44;;;;;;;0.00;0.00;;;;;;;16.23;96.07;101680.84;5024573;28;20032;-72
2022/08/24 02:50:11;;;;;;;0.00;0.00;;;;;;;16.21;96.09;101681.97;5028869;28;20033;-72
2022/08/24 02:52:38;;;;;;;0.00;0.00;;;;;;;16.19;96.91;101680.25;5024853;28;20021;-72
2022/08/24 02:55:05;;;;;;;0.10;0.10;;;;;;;16.11;95.45;101679.25;5024109;28;20276;-71
2022/08/24 02:57:31;;;;;;;0.00;0.00;;;;;;;15.97;95.55;101675.88;5025818;28;20033;-71
2022/08/24 02:59:56;;;;;;;0.00;0.00;;;;;;;15.86;96.79;101676.81;5026872;28;20037;-72
2022/08/24 03:02:22;;;;;;;0.03;0.03;;;;;;;15.67;98.17;101638.78;5022135;28;20017;-72
2022/08/24 03:04:47;;;;;;;0.10;0.10;;;;;;;15.75;98.79;101674.19;5020626;28;20128;-72
2022/08/24 03:07:12;;;;;;;0.10;0.10;;;;;;;15.41;99.59;101653.56;5024683;28;20079;-71
2022/08/24 03:09:38;;;;;;;0.08;0.08;;;;;;;15.63;100.00;101683.34;5022551;28;20060;-72
2022/08/24 03:12:03;;;;;;;0.00;0.00;;;;;;;15.53;100.00;101651.66;5024060;28;20068;-71
2022/08/24 03:14:28;;;;;;;0.00;0.00;;;;;;;15.77;100.00;101674.88;5023535;28;20033;-71
2022/08/24 03:16:54;;;;;;;0.10;0.10;;;;;;;15.81;99.68;101670.91;5024119;28;20292;-72
2022/08/24 03:19:21;;;;;;;0.00;0.00;;;;;;;15.72;98.82;101672.56;5023487;28;20024;-71
2022/08/24 03:21:46;;;;;;;0.00;0.00;;;;;;;15.71;98.76;101665.44;5021286;28;20036;-71
2022/08/24 03:24:11;;;;;;;0.10;0.10;;;;;;;15.82;100.00;101675.34;5025881;28;20021;-71
2022/08/24 03:26:37;;;;;;;0.10;0.10;;;;;;;15.79;99.43;101670.19;5025961;28;20029;-71
2022/08/24 03:29:03;;;;;;;0.00;0.00;;;;;;;15.74;98.60;101672.47;5024570;28;20637;-71
2022/08/24 03:31:28;;;;;;;0.00;0.00;;;;;;;15.58;98.12;101659.38;5024410;28;20057;-71
2022/08/24 03:33:54;;;;;;;0.00;0.00;;;;;;;15.64;99.50;101663.41;5025325;28;22321;-72
2022/08/24 03:36:19;;;;;;;0.00;0.00;;;;;;;15.57;98.77;101663.09;5026724;28;20380;-71
2022/08/24 03:38:44;;;;;;;0.10;0.10;;;;;;;15.49;98.61;101660.16;5028165;28;20123;-71
2022/08/24 03:41:10;;;;;;;0.10;0.10;;;;;;;15.48;100.00;101662.03;5028546;28;20044;-71
2022/08/24 03:43:46;;;;;;;0.05;0.05;;;;;;;15.25;99.71;101632.38;5027743;28;20044;-71
2022/08/24 03:46:14;;;;;;;0.00;0.00;;;;;;;15.36;100.00;101634.16;5015532;28;20021;-76
2022/08/24 03:48:40;;;;;;;0.10;0.10;;;;;;;15.56;100.00;101656.78;5023154;28;20025;-71
2022/08/24 03:51:06;;;;;;;0.00;0.00;;;;;;;15.51;99.31;101644.66;5022348;28;20072;-72
2022/08/24 03:53:32;;;;;;;0.13;0.00;;;;;;;15.61;98.19;101661.84;5023789;28;20037;-71
2022/08/24 03:55:57;;;;;;;0.10;0.10;;;;;;;15.61;97.82;101645.59;5022762;28;20876;-71
2022/08/24 03:58:23;;;;;;;0.10;0.10;;;;;;;15.77;98.14;101655.06;5026425;28;20121;-70
2022/08/24 04:00:48;;;;;;;0.08;0.08;;;;;;;15.47;96.76;101625.13;5019844;28;20506;-70
2022/08/24 04:03:14;;;;;;;0.00;0.00;;;;;;;15.68;96.72;101662.16;5019823;28;20038;-70
2022/08/24 04:05:41;;;;;;;0.00;0.00;;;;;;;15.67;96.55;101669.41;5028636;28;20079;-70
2022/08/24 04:08:07;;;;;;;0.10;0.10;;;;;;;15.64;96.13;101664.25;5025429;28;20014;-70
2022/08/24 04:10:33;;;;;;;0.00;0.00;;;;;;;15.68;96.58;101668.41;5025211;28;20039;-70
2022/08/24 04:13:00;;;;;;;0.05;0.05;;;;;;;15.70;96.94;101662.88;5018042;28;20037;-70
2022/08/24 04:15:26;;;;;;;0.00;0.00;;;;;;;15.63;95.79;101670.66;5025402;28;20026;-70
2022/08/24 04:17:51;;;;;;;0.00;0.00;;;;;;;15.51;95.79;101674.44;5020743;28;20029;-70
2022/08/24 04:20:16;;;;;;;0.00;0.00;;;;;;;15.22;97.24;101659.72;5012386;28;20029;-72
2022/08/24 04:22:42;;;;;;;0.00;0.00;;;;;;;15.23;98.41;101674.91;5025855;28;20380;-70
2022/08/24 04:25:09;;;;;;;0.10;0.10;;;;;;;15.18;99.05;101682.59;5022875;28;20057;-69
2022/08/24 04:27:34;;;;;;;0.08;0.08;;;;;;;15.16;100.00;101679.16;5017869;28;20521;-71
2022/08/24 04:29:59;;;;;;;0.00;0.00;;;;;;;15.19;99.18;101687.00;5025759;28;20029;-69
2022/08/24 04:32:25;;;;;;;0.00;0.00;;;;;;;15.14;98.14;101684.66;5026279;28;20025;-72
2022/08/24 04:34:50;;;;;;;0.05;0.05;;;;;;;15.04;97.90;101672.06;5023160;28;20065;-72
2022/08/24 04:37:16;;;;;;;0.10;0.10;;;;;;;15.13;97.90;101690.22;5016795;28;20125;-70
2022/08/24 04:39:42;;;;;;;0.05;0.05;;;;;;;15.17;98.00;101697.09;5016178;28;20083;-72
2022/08/24 04:42:08;;;;;;;0.10;0.10;;;;;;;15.19;98.06;101691.53;5017551;28;20831;-72
2022/08/24 04:44:33;;;;;;;0.05;0.05;;;;;;;15.06;98.04;101697.13;5022247;28;20033;-72
2022/08/24 04:47:00;;;;;;;0.00;0.00;;;;;;;14.88;99.12;101686.00;5026769;28;22034;-72
2022/08/24 04:49:26;;;;;;;0.00;0.00;;;;;;;14.99;99.31;101702.19;5020929;28;20064;-72
2022/08/24 04:51:51;;;;;;;0.10;0.10;;;;;;;14.98;98.98;101695.91;5024411;28;20052;-73
2022/08/24 04:54:16;;;;;;;0.00;0.00;;;;;;;15.13;99.90;101701.88;5026058;28;20065;-72
2022/08/24 04:56:42;;;;;;;0.00;0.00;;;;;;;15.26;100.00;101699.00;5017682;28;20060;-72
2022/08/24 04:59:07;;;;;;;0.10;0.10;;;;;;;15.35;100.00;101692.00;5026698;28;20021;-73
2022/08/24 05:01:33;;;;;;;0.00;0.00;;;;;;;15.12;98.98;101673.13;5021623;28;20025;-73
2022/08/24 05:03:59;;;;;;;0.10;0.10;;;;;;;15.28;98.96;101698.91;5023109;28;20074;-73
2022/08/24 05:06:27;;;;;;;0.00;0.00;;;;;;;15.29;99.00;101698.75;5027889;28;20037;-73
2022/08/24 05:08:52;;;;;;;0.00;0.00;;;;;;;15.26;98.75;101700.88;5024001;28;20475;-73
2022/08/24 05:11:19;;;;;;;0.00;0.00;;;;;;;15.24;99.10;101700.97;5024119;28;20075;-73
2022/08/24 05:13:45;;;;;;;0.10;0.10;;;;;;;15.16;99.57;101689.97;5025216;28;20041;-73
2022/08/24 05:16:13;;;;;;;0.00;0.00;;;;;;;15.14;99.89;101690.09;5025888;28;20391;-73
2022/08/24 05:18:39;;;;;;;0.00;0.00;;;;;;;15.21;100.00;101714.78;5018613;28;20431;-73
2022/08/24 05:21:07;;;;;;;0.00;0.00;;;;;;;15.25;100.00;101716.22;5019869;28;20038;-73
2022/08/24 05:23:34;;;;;;;2.60;1.10;;;;;;;15.32;100.00;101716.59;5019330;28;20551;-72
2022/08/24 05:26:07;;;;;;;2.20;1.25;;;;;;;15.36;100.00;101726.13;5023715;28;20029;-72
2022/08/24 05:28:34;;;;;;;0.40;0.40;;;;;;;15.37;100.00;101730.56;5022854;28;20025;-73
2022/08/24 05:31:11;;;;;;;0.00;0.00;;;;;;;15.36;100.00;101723.44;5022151;28;20045;-72
2022/08/24 05:33:37;;;;;;;0.03;0.00;;;;;;;15.42;100.00;101719.38;5022543;28;20031;-72
2022/08/24 05:36:03;;;;;;;0.00;0.00;;;;;;;15.60;100.00;101727.78;5023799;28;20025;-72
2022/08/24 05:38:30;;;;;;;17.98;10.38;;;;;;;15.64;100.00;101726.50;5015388;28;20111;-72
2022/08/24 05:40:59;;;;;;;13.23;6.85;;;;;;;15.72;100.00;101724.00;5021649;28;20037;-72
2022/08/24 05:43:25;;;;;;;1.27;1.10;;;;;;;15.91;100.00;101735.97;5023291;28;20041;-72
2022/08/24 05:45:50;;;;;;;0.70;0.70;;;;;;;16.07;100.00;101729.25;5027194;28;20040;-72
2022/08/24 05:48:15;;;;;;;0.20;0.20;;;;;;;16.25;100.00;101734.91;5017187;28;20054;-73
2022/08/24 05:50:41;;;;;;;0.20;0.20;;;;;;;16.12;100.00;101697.22;5022150;28;20116;-73
2022/08/24 05:53:06;;;;;;;0.22;0.22;;;;;;;16.21;100.00;101692.81;5009932;28;20491;-73
2022/08/24 05:55:32;;;;;;;0.52;0.13;;;;;;;16.46;100.00;101715.88;5025661;28;20478;-72
2022/08/24 05:57:57;;;;;;;0.20;0.20;;;;;;;16.66;100.00;101726.81;5025761;28;20075;-72
2022/08/24 06:00:24;;;;;;;0.05;0.05;;;;;;;16.77;100.00;101730.25;5025696;28;20029;-72
2022/08/24 06:02:51;;;;;;;0.10;0.10;;;;;;;17.03;100.00;101734.31;5020974;28;20025;-72
2022/08/24 06:05:17;;;;;;;0.10;0.10;;;;;;;17.24;100.00;101734.22;5021565;28;20129;-72
2022/08/24 06:07:42;;;;;;;0.03;0.03;;;;;;;17.45;100.00;101741.34;5022822;28;20021;-72
2022/08/24 06:10:08;;;;;;;0.10;0.10;;;;;;;17.67;100.00;101738.34;5024628;28;20037;-72
2022/08/24 06:12:35;;;;;;;0.10;0.10;;;;;;;17.88;100.00;101739.19;5021001;28;20032;-72
2022/08/24 06:15:00;;;;;;;0.10;0.10;;;;;;;18.06;100.00;101740.16;5026222;28;20044;-72
2022/08/24 06:17:25;;;;;;;0.10;0.10;;;;;;;18.20;99.41;101733.41;5021728;28;20033;-73
2022/08/24 06:19:51;;;;;;;5.95;3.42;;;;;;;18.25;100.00;101730.25;5024691;28;20485;-72
2022/08/24 06:22:16;;;;;;;8.20;3.90;;;;;;;18.39;100.00;101734.34;5019461;28;20420;-72
2022/08/24 06:27:25;;;;;;;0.00;0.00;;;;;;;18.66;100.00;101751.69;5022030;28;20036;-73
2022/08/24 06:29:54;;;;;;;0.00;0.00;;;;;;;18.79;100.00;101744.03;5026146;28;20030;-73
2022/08/24 06:32:20;;;;;;;0.00;0.00;;;;;;;19.02;100.00;101754.50;5025739;28;20029;-73
2022/08/24 06:34:45;;;;;;;1.90;1.10;;;;;;;19.19;100.00;101752.81;5023570;28;20040;-73
2022/08/24 06:37:11;;;;;;;0.68;0.68;;;;;;;19.32;100.00;101755.16;5024414;28;20052;-72
2022/08/24 06:39:36;;;;;;;0.30;0.30;;;;;;;19.53;100.00;101763.03;5026255;28;20051;-73
2022/08/24 06:42:02;;;;;;;0.10;0.10;;;;;;;19.59;100.00;101737.03;5025725;28;20034;-73
2022/08/24 06:44:27;;;;;;;0.10;0.10;;;;;;;19.90;100.00;101761.16;5023353;28;20088;-74
2022/08/24 06:46:52;;;;;;;0.00;0.00;;;;;;;20.03;100.00;101763.47;5024662;28;20029;-73
2022/08/24 06:49:18;;;;;;;0.10;0.10;;;;;;;20.16;100.00;101758.41;5018983;28;20072;-74
2022/08/24 06:51:44;;;;;;;0.00;0.00;;;;;;;20.31;100.00;101755.13;5023003;28;20025;-73
2022/08/24 06:54:09;;;;;;;0.00;0.00;;;;;;;20.42;100.00;101740.34;5028174;28;20033;-75
2022/08/24 06:56:36;;;;;;;0.00;0.00;;;;;;;20.65;100.00;101760.56;5023750;28;20051;-73
2022/08/24 06:59:03;;;;;;;0.10;0.05;;;;;;;20.75;100.00;101743.22;5028368;28;20462;-73
2022/08/24 07:01:28;;;;;;;0.00;0.00;;;;;;;21.02;100.00;101761.22;5022560;28;20538;-73
2022/08/24 07:03:55;;;;;;;0.00;0.00;;;;;;;21.16;99.29;101761.63;5025311;28;20034;-73
2022/08/24 07:06:21;;;;;;;0.10;0.10;;;;;;;21.37;98.66;101769.31;5024016;28;20499;-73
2022/08/24 07:08:46;;;;;;;3.63;2.55;;;;;;;21.45;98.66;101750.22;5025601;28;20026;-73
2022/08/24 07:11:16;;;;;;;0.10;0.10;;;;;;;21.67;97.36;101767.84;5024583;28;20041;-74
2022/08/24 07:13:42;;;;;;;0.00;0.00;;;;;;;21.85;96.26;101770.38;5027472;28;20029;-73
2022/08/24 07:16:11;;;;;;;0.00;0.00;;;;;;;22.00;96.12;101765.06;5028389;28;20478;-73
2022/08/24 07:18:36;;;;;;;0.00;0.00;;;;;;;22.00;92.30;101756.88;5023596;28;20149;-73
2022/08/24 07:21:02;;;;;;;0.00;0.00;;;;;;;22.11;91.38;101777.56;5026270;28;20554;-74
2022/08/24 07:23:28;;;;;;;0.00;0.00;;;;;;;22.16;90.91;101772.41;5027359;28;20029;-74
2022/08/24 07:25:53;;;;;;;0.00;0.00;;;;;;;22.33;89.20;101764.19;5025650;28;20025;-74
2022/08/24 07:28:19;;;;;;;0.00;0.00;;;;;;;22.54;89.25;101768.25;5028002;28;20384;-73
2022/08/24 07:30:45;;;;;;;0.00;0.00;;;;;;;22.74;88.68;101766.78;5026486;28;20026;-73
2022/08/24 07:33:11;;;;;;;0.00;0.00;;;;;;;22.88;87.87;101765.19;5024045;28;20030;-74
2022/08/24 07:35:37;;;;;;;0.00;0.00;;;;;;;23.06;86.72;101764.91;5024187;28;20036;-73
2022/08/24 07:38:03;;;;;;;0.03;0.03;;;;;;;23.19;87.02;101767.06;5023011;28;20064;-73
2022/08/24 07:40:29;;;;;;;0.05;0.05;;;;;;;23.42;86.68;101774.47;5026776;28;20380;-73
2022/08/24 07:42:56;;;;;;;0.00;0.00;;;;;;;23.60;85.64;101763.22;5028205;28;20033;-73
2022/08/24 07:45:22;;;;;;;0.00;0.00;;;;;;;23.81;83.71;101764.38;5027695;28;20272;-74
2022/08/24 07:47:48;;;;;;;0.00;0.00;;;;;;;23.81;82.57;101742.47;5022510;28;20108;-75
2022/08/24 07:50:14;;;;;;;0.00;0.00;;;;;;;24.11;81.17;101762.56;5020233;28;20087;-75
2022/08/24 07:52:41;;;;;;;0.10;0.10;;;;;;;24.26;79.44;101770.81;5020564;28;20091;-68
2022/08/24 07:55:07;;;;;;;0.00;0.00;;;;;;;24.38;79.15;101768.47;5024827;28;20025;-73
2022/08/24 07:57:32;;;;;;;0.00;0.00;;;;;;;24.54;78.20;101770.16;5022139;28;20033;-73
2022/08/24 07:59:58;;;;;;;0.00;0.00;;;;;;;24.69;77.40;101755.59;5028357;28;20391;-73
2022/08/24 08:02:24;;;;;;;0.00;0.00;;;;;;;24.88;77.20;101759.66;5027613;28;20112;-73
2022/08/24 08:04:49;;;;;;;0.00;0.00;;;;;;;25.03;76.24;101761.50;5024090;28;20104;-73
2022/08/24 08:07:16;;;;;;;0.00;0.00;;;;;;;25.17;75.57;101757.84;5027901;28;20372;-73
2022/08/24 08:09:42;;;;;;;0.00;0.00;;;;;;;25.31;74.72;101761.59;5028441;28;20029;-73
2022/08/24 08:12:07;;;;;;;0.00;0.00;;;;;;;25.36;73.71;101761.88;5024913;28;20030;-73
2022/08/24 08:14:34;;;;;;;0.00;0.00;;;;;;;25.25;71.34;101746.75;5025644;28;20096;-74
2022/08/24 08:17:00;;;;;;;0.00;0.00;;;;;;;25.37;70.70;101773.72;5026737;28;20022;-74
2022/08/24 08:19:25;;;;;;;0.00;0.00;;;;;;;25.44;71.09;101769.16;5022333;28;20074;-74
2022/08/24 08:24:41;;;;;;;0.00;0.00;;;;;;;25.65;66.76;101775.72;5024309;28;20052;-74
2022/08/24 08:27:06;;;;;;;0.00;0.00;;;;;;;25.68;66.92;101765.16;5023981;28;20026;-74
2022/08/24 08:29:33;;;;;;;0.00;0.00;;;;;;;25.98;67.25;101781.50;5025059;28;20482;-73
2022/08/24 08:31:59;;;;;;;0.00;0.00;;;;;;;26.22;67.11;101787.63;5023700;28;20438;-68
2022/08/24 08:34:25;;;;;;;0.00;0.00;;;;;;;26.23;67.57;101789.31;5023626;28;20461;-67
2022/08/24 08:36:50;;;;;;;0.10;0.10;;;;;;;26.40;68.62;101789.84;5026770;28;20107;-72
2022/08/24 08:39:16;;;;;;;0.00;0.00;;;;;;;26.41;64.51;101786.06;5019258;28;20032;-73
2022/08/24 08:41:55;;;;;;;0.10;0.10;;;;;;;26.48;64.26;101795.22;5025082;28;20318;-73
2022/08/24 08:44:39;;;;;;;0.22;0.22;;;;;;;26.65;65.41;101792.94;5018058;28;20686;-74
2022/08/24 08:47:09;;;;;;;;;;;;;;;26.75;60.55;101788.97;5025364;28;20029;-73
2022/08/24 08:49:58;;;;;;;0.00;0.00;;;;;;;26.95;61.89;101784.44;5025596;28;19921;-72
2022/08/24 08:52:27;;;;;;;0.00;0.00;;;;;;;27.04;59.63;101785.09;5021146;28;20053;-73
2022/08/24 08:55:26;;;;;;;0.00;0.00;;;;;;;27.20;58.88;101785.78;5025510;28;20029;-72
2022/08/24 08:58:10;;;;;;;0.00;0.00;;;;;;;27.14;60.90;101789.38;5023000;28;20030;-72
2022/08/24 09:00:48;;;;;;;0.55;0.55;;;;;;;27.37;62.92;101784.34;5018507;28;20060;-71
2022/08/24 09:03:22;;;;;;;0.10;0.10;;;;;;;27.54;62.37;101786.75;5030272;28;20029;-72
2022/08/24 09:05:54;;;;;;;0.00;0.00;;;;;;;27.54;61.27;101782.06;5027118;28;20033;-72
2022/08/24 09:08:31;;;;;;;0.00;0.00;;;;;;;27.60;58.71;101782.28;5026420;28;20029;-75
2022/08/24 09:11:09;;;;;;;0.00;0.00;;;;;;;27.66;56.71;101778.69;5015001;28;20121;-74
2022/08/24 09:14:12;;;;;;;0.00;0.00;;;;;;;27.83;55.79;101785.47;5022453;28;20029;-74
2022/08/24 09:17:04;;;;;;;0.00;0.00;;;;;;;27.88;54.40;101786.75;5023473;28;20025;-75
2022/08/24 09:20:07;;;;;;;0.00;0.00;;;;;;;27.91;55.50;101786.31;5021678;28;20041;-73
2022/08/24 09:22:38;;;;;;;0.03;0.03;;;;;;;28.18;57.27;101797.38;5017184;28;20040;-73
2022/08/24 09:25:23;;;;;;;0.00;0.00;;;;;;;28.39;55.07;101785.22;5026706;28;20379;-73
2022/08/24 09:27:54;;;;;;;0.00;0.00;;;;;;;28.48;55.09;101786.69;5018444;28;20018;-70
2022/08/24 09:30:26;;;;;;;0.00;0.00;;;;;;;28.63;53.68;101780.91;5022974;28;20029;-72
2022/08/24 09:33:05;;;;;;;0.00;0.00;;;;;;;28.71;55.68;101779.81;5019989;28;20030;-72
2022/08/24 09:35:49;;;;;;;0.00;0.00;;;;;;;28.88;54.19;101777.44;5024148;28;20035;-72
2022/08/24 09:38:22;;;;;;;0.00;0.00;;;;;;;29.06;53.21;101771.19;5024666;28;20037;-72
2022/08/24 09:41:12;;;;;;;0.00;0.00;;;;;;;29.24;53.05;101773.22;5024281;28;20033;-72
2022/08/24 09:44:06;;;;;;;0.00;0.00;;;;;;;29.31;52.92;101775.91;5023468;28;20029;-74
2022/08/24 09:46:49;;;;;;;0.00;0.00;;;;;;;29.33;53.87;101782.91;5016396;28;20128;-72
2022/08/24 09:49:29;;;;;;;0.00;0.00;;;;;;;29.01;49.94;101787.56;5022394;28;20294;-75
2022/08/24 09:52:17;;;;;;;0.00;0.00;;;;;;;29.04;51.47;101776.91;5019197;28;20112;-74
2022/08/24 09:54:51;;;;;;;0.00;0.00;;;;;;;29.35;51.66;101777.16;5018786;28;20414;-73
2022/08/24 09:57:44;;;;;;;0.08;0.00;;;;;;;29.31;51.13;101781.44;5023780;28;20107;-74
2022/08/24 10:00:24;;;;;;;0.00;0.00;;;;;;;29.55;49.80;101773.44;5023108;28;20026;-74
2022/08/24 10:03:27;;;;;;;0.00;0.00;;;;;;;29.37;46.86;101779.72;5016485;28;20029;-75
2022/08/24 10:06:07;;;;;;;0.00;0.00;;;;;;;29.34;47.79;101772.72;5017879;28;20064;-75
2022/08/24 10:08:48;;;;;;;0.00;0.00;;;;;;;29.61;47.68;101775.31;5023227;28;20367;-74
2022/08/24 10:11:30;;;;;;;0.00;0.00;;;;;;;29.44;47.70;101775.84;5027675;28;20526;-74
2022/08/24 10:14:11;;;;;;;0.00;0.00;;;;;;;29.59;47.74;101772.75;5022096;28;20468;-74
2022/08/24 10:17:02;;;;;;;0.00;0.00;;;;;;;30.13;46.41;101774.25;5018131;28;20041;-74
2022/08/24 10:19:39;;;;;;;0.00;0.00;;;;;;;30.18;46.31;101766.94;5022967;28;20399;-76
2022/08/24 10:22:26;;;;;;;0.00;0.00;;;;;;;29.72;47.67;101757.13;5022132;28;20410;-76
2022/08/24 10:25:03;;;;;;;0.00;0.00;;;;;;;29.74;49.72;101760.53;5025559;28;20034;-75
2022/08/24 10:27:57;;;;;;;0.00;0.00;;;;;;;29.97;45.64;101761.84;5022831;28;20044;-76
2022/08/24 10:30:23;;;;;;;;;;;;;;;30.23;47.58;101755.16;5028034;28;20040;-74
2022/08/24 10:33:10;;;;;;;0.00;0.00;;;;;;;30.11;47.19;101759.78;5025905;28;19913;-75
2022/08/24 10:35:54;;;;;;;0.00;0.00;;;;;;;29.89;48.78;101755.47;5024156;28;20037;-73
2022/08/24 10:41:40;;;;;;;0.00;0.00;;;;;;;30.70;45.51;101751.03;5027316;28;20276;-76
2022/08/24 10:44:13;;;;;;;0.08;0.05;;;;;;;30.50;45.64;101747.41;5023118;28;20417;-75
2022/08/24 10:46:47;;;;;;;0.00;0.00;;;;;;;30.99;44.06;101743.81;5025256;28;20029;-73
2022/08/24 10:50:03;;;;;;;0.00;0.00;;;;;;;31.51;45.81;101742.41;5025064;28;20021;-75
2022/08/24 10:52:37;;;;;;;0.00;0.00;;;;;;;31.91;43.68;101746.47;5027275;28;20025;-76
2022/08/24 10:55:25;;;;;;;0.00;0.00;;;;;;;31.49;41.04;101737.13;5023364;28;20482;-74
2022/08/24 10:58:23;;;;;;;0.00;0.00;;;;;;;31.56;41.85;101737.84;5019971;28;20021;-73
2022/08/24 11:00:49;;;;;;;0.00;0.00;;;;;;;31.70;42.26;101734.84;5025857;28;20064;-72
2022/08/24 11:03:21;;;;;;;0.00;0.00;;;;;;;31.03;43.11;101728.41;5028275;28;20112;-72
2022/08/24 11:05:50;;;;;;;0.00;0.00;;;;;;;31.15;46.01;101733.16;5025355;28;20022;-69
2022/08/24 11:08:26;;;;;;;0.00;0.00;;;;;;;30.96;44.29;101738.75;5028665;28;20243;-70
2022/08/24 11:11:06;;;;;;;0.00;0.00;;;;;;;31.31;44.87;101729.72;5027316;28;20496;-72
2022/08/24 11:13:32;;;;;;;0.00;0.00;;;;;;;31.47;42.54;101728.19;5010355;28;20036;-76
2022/08/24 11:15:59;;;;;;;0.00;0.00;;;;;;;31.58;41.85;101720.97;5028757;28;20033;-72
2022/08/24 11:18:27;;;;;;;0.00;0.00;;;;;;;30.66;43.97;101740.44;5020952;28;20039;-73
2022/08/24 11:20:53;;;;;;;0.00;0.00;;;;;;;30.36;44.53;101732.00;5020234;28;20029;-74
2022/08/24 11:23:21;;;;;;;0.00;0.00;;;;;;;30.92;44.84;101734.75;5023663;28;20503;-71
2022/08/24 11:26:02;;;;;;;0.00;0.00;;;;;;;30.89;43.81;101738.84;5026994;28;20040;-73
2022/08/24 11:28:36;;;;;;;0.00;0.00;;;;;;;30.68;45.04;101718.00;5026796;28;20060;-74
2022/08/24 11:31:02;;;;;;;0.00;0.00;;;;;;;31.01;44.87;101724.16;5027807;28;20499;-74
2022/08/24 11:33:27;;;;;;;0.00;0.00;;;;;;;30.84;42.46;101724.00;5025540;28;20033;-71
2022/08/24 11:35:53;;;;;;;0.00;0.00;;;;;;;30.93;43.14;101708.72;5022860;28;20475;-71
2022/08/24 11:38:30;;;;;;;0.00;0.00;;;;;;;30.18;43.60;101724.56;5024611;28;20283;-72
2022/08/24 11:41:00;;;;;;;0.00;0.00;;;;;;;30.19;44.60;101715.19;5027414;28;20032;-72
2022/08/24 11:43:48;;;;;;;0.00;0.00;;;;;;;30.07;43.82;101729.78;5028586;28;20041;-72
2022/08/24 11:46:35;;;;;;;0.00;0.00;;;;;;;30.02;45.88;101726.84;5027111;28;20033;-71
2022/08/24 11:49:09;;;;;;;0.00;0.00;;;;;;;30.27;44.73;101728.72;5023681;28;20647;-72